createdAt,value
2023-01-13T00:01:50.448Z,95660.16
2023-01-13T00:04:20.685Z,95672.02
2023-01-13T00:06:49.468Z,95668.17
2023-01-13T00:09:18.104Z,95673.13
2023-01-13T00:11:47.825Z,95672.27
2023-01-13T00:14:18.564Z,95668.32
2023-01-13T00:16:47.218Z,95670.80
2023-01-13T00:19:15.920Z,95670.95
2023-01-13T00:21:45.990Z,95672.99
2023-01-13T00:24:21.520Z,95675.16
2023-01-13T00:26:53.005Z,95672.22
2023-01-13T00:29:21.760Z,95671.00
2023-01-13T00:31:51.170Z,95672.45
2023-01-13T00:34:21.456Z,95671.98
2023-01-13T00:36:50.079Z,95670.34
2023-01-13T00:39:18.713Z,95671.16
2023-01-13T00:42:05.413Z,95673.59
2023-01-13T00:44:34.008Z,95672.44
2023-01-13T00:47:02.584Z,95677.85
2023-01-13T00:49:33.733Z,95677.63
2023-01-13T00:52:03.874Z,95675.61
2023-01-13T00:54:33.985Z,95672.67
2023-01-13T00:57:02.640Z,95673.77
2023-01-13T00:59:34.189Z,95668.77
2023-01-13T01:02:03.140Z,95667.38
2023-01-13T01:04:34.838Z,95670.80
2023-01-13T01:07:06.765Z,95651.14
2023-01-13T01:09:38.937Z,95666.85
2023-01-13T01:12:07.765Z,95665.78
2023-01-13T01:14:36.911Z,95658.97
2023-01-13T01:17:05.760Z,95661.05
2023-01-13T01:19:36.145Z,95662.38
2023-01-13T01:22:05.112Z,95661.02
2023-01-13T01:24:35.668Z,95659.80
2023-01-13T01:27:07.313Z,95651.86
2023-01-13T01:29:36.238Z,95655.58
2023-01-13T01:32:07.227Z,95653.47
2023-01-13T01:34:38.970Z,95653.84
2023-01-13T01:37:09.701Z,95649.53
2023-01-13T01:39:39.208Z,95648.31
2023-01-13T01:42:25.559Z,95646.63
2023-01-13T01:45:04.829Z,95645.91
2023-01-13T01:47:35.299Z,95641.19
2023-01-13T01:50:05.588Z,95642.09
2023-01-13T01:58:17.726Z,95633.42
2023-01-13T02:00:46.443Z,95636.13
2023-01-13T02:03:16.549Z,95643.80
2023-01-13T02:05:45.184Z,95641.55
2023-01-13T02:08:15.192Z,95637.64
2023-01-13T02:10:46.234Z,95639.36
2023-01-13T02:13:15.746Z,95638.54
2023-01-13T02:16:05.694Z,95639.13
2023-01-13T02:18:45.788Z,95631.86
2023-01-13T02:21:38.009Z,95633.17
2023-01-13T02:24:46.876Z,95631.86
2023-01-13T02:27:30.411Z,95632.71
2023-01-13T02:30:19.870Z,95627.67
2023-01-13T02:33:03.099Z,95626.05
2023-01-13T02:35:37.476Z,95632.09
2023-01-13T02:38:08.242Z,95629.48
2023-01-13T02:40:39.809Z,95629.64
2023-01-13T02:43:35.882Z,95632.73
2023-01-13T02:46:07.519Z,95629.66
2023-01-13T02:48:37.876Z,95623.10
2023-01-13T02:51:09.688Z,95627.27
2023-01-13T02:53:53.650Z,95627.72
2023-01-13T02:56:24.361Z,95624.95
2023-01-13T02:58:54.744Z,95625.50
2023-01-13T03:01:23.960Z,95626.78
2023-01-13T03:03:52.622Z,95622.09
2023-01-13T03:06:30.400Z,95625.83
2023-01-13T03:09:22.937Z,95628.16
2023-01-13T03:12:06.766Z,95629.38
2023-01-13T03:14:41.019Z,95627.44
2023-01-13T03:17:27.648Z,95624.48
2023-01-13T03:20:07.084Z,95630.78
2023-01-13T03:22:38.782Z,95633.17
2023-01-13T03:25:13.426Z,95627.67
2023-01-13T03:28:03.375Z,95606.08
2023-01-13T03:30:44.915Z,95635.39
2023-01-13T03:33:19.300Z,95629.77
2023-01-13T03:35:52.347Z,95629.81
2023-01-13T03:38:32.386Z,95630.77
2023-01-13T03:41:06.492Z,95637.27
2023-01-13T03:43:56.322Z,95635.41
2023-01-13T03:46:43.665Z,95639.63
2023-01-13T03:49:15.378Z,95635.41
2023-01-13T03:51:47.807Z,95639.75
2023-01-13T03:54:18.919Z,95640.34
2023-01-13T03:56:50.623Z,95640.45
2023-01-13T03:59:22.323Z,95638.90
2023-01-13T04:01:57.061Z,95639.63
2023-01-13T04:04:31.793Z,95638.70
2023-01-13T04:07:09.293Z,95639.95
2023-01-13T04:09:46.769Z,95643.58
2023-01-13T04:12:51.070Z,95646.93
2023-01-13T04:15:25.240Z,95648.12
2023-01-13T04:17:55.900Z,95643.39
2023-01-13T04:20:24.597Z,95647.36
2023-01-13T04:22:53.281Z,95643.72
2023-01-13T04:25:22.045Z,95647.36
2023-01-13T04:27:50.690Z,95659.38
2023-01-13T04:30:19.426Z,95658.94
2023-01-13T04:32:47.983Z,95656.87
2023-01-13T04:35:19.778Z,95656.69
2023-01-13T04:37:48.672Z,95652.20
2023-01-13T04:40:17.533Z,95652.82
2023-01-13T04:42:46.677Z,95657.56
2023-01-13T04:45:15.866Z,95661.16
2023-01-13T04:47:46.059Z,95663.38
2023-01-13T04:50:15.092Z,95664.77
2023-01-13T04:52:43.731Z,95660.38
2023-01-13T04:55:16.829Z,95658.98
2023-01-13T04:57:50.992Z,95660.17
2023-01-13T05:00:21.987Z,95661.62
2023-01-13T05:03:12.482Z,95657.41
2023-01-13T05:06:11.329Z,95662.44
2023-01-13T05:18:23.561Z,95665.11
2023-01-13T05:20:52.403Z,95669.14
2023-01-13T05:23:22.557Z,95669.14
2023-01-13T05:25:51.431Z,95674.33
2023-01-13T05:28:20.051Z,95671.56
2023-01-13T05:30:52.686Z,95673.70
2023-01-13T05:33:21.680Z,95671.61
2023-01-13T05:35:53.430Z,95674.09
2023-01-13T05:38:22.623Z,95676.64
2023-01-13T05:41:09.386Z,95674.91
2023-01-13T05:43:38.143Z,95673.77
2023-01-13T05:46:14.399Z,95680.22
2023-01-13T05:48:48.627Z,95680.22
2023-01-13T05:51:27.896Z,95613.98
2023-01-13T06:04:21.471Z,95696.24
2023-01-13T06:06:53.658Z,95692.41
2023-01-13T06:09:23.980Z,95695.16
2023-01-13T06:11:53.089Z,95700.21
2023-01-13T06:14:23.362Z,95700.03
2023-01-13T06:16:58.410Z,95701.69
2023-01-13T06:19:32.820Z,95705.52
2023-01-13T06:22:12.153Z,95703.93
2023-01-13T06:24:50.198Z,95710.98
2023-01-13T06:27:31.715Z,95710.03
2023-01-13T06:34:28.838Z,95710.84
2023-01-13T06:37:05.516Z,95710.84
2023-01-13T06:39:50.695Z,95709.99
2023-01-13T06:42:42.395Z,95708.33
2023-01-13T06:45:15.582Z,95713.97
2023-01-13T06:58:18.065Z,95705.05
2023-01-13T07:01:47.677Z,95713.74
2023-01-13T07:33:38.184Z,95705.02
2023-01-13T08:03:08.620Z,95706.84
2023-01-13T08:05:40.773Z,95709.75
2023-01-13T08:27:36.839Z,95713.48
2023-01-13T08:33:08.157Z,95720.22
2023-01-13T08:39:07.480Z,95715.81
2023-01-13T08:42:01.991Z,95720.08
2023-01-13T08:44:47.912Z,95715.42
2023-01-13T08:50:04.611Z,95709.93
2023-01-13T08:52:33.760Z,95722.70
2023-01-13T08:55:03.469Z,95716.14
2023-01-13T08:57:32.427Z,95714.62
2023-01-13T09:00:01.467Z,95709.73
2023-01-13T09:02:34.415Z,95715.59
2023-01-13T09:05:04.362Z,95710.63
2023-01-13T09:07:33.315Z,95714.23
2023-01-13T09:10:22.258Z,95712.77
2023-01-13T09:13:10.423Z,95710.73
2023-01-13T09:15:42.787Z,95708.30
2023-01-13T09:18:17.945Z,95710.73
2023-01-13T09:20:56.755Z,95705.84
2023-01-13T09:23:40.630Z,95691.89
2023-01-13T09:26:07.172Z,95708.16
2023-01-13T09:28:42.507Z,95702.66
2023-01-13T09:31:50.245Z,95707.68
2023-01-13T09:34:47.642Z,95706.44
2023-01-13T09:37:17.007Z,95699.50
2023-01-13T09:47:00.677Z,95699.92
2023-01-13T09:50:03.087Z,95656.65
2023-01-13T09:52:39.585Z,95693.94
2023-01-13T09:55:23.794Z,95702.48
2023-01-13T09:57:52.761Z,95700.72
2023-01-13T10:01:04.040Z,95696.44
2023-01-13T10:03:41.845Z,95690.48
2023-01-13T10:09:29.792Z,95691.28
2023-01-13T10:12:18.333Z,95680.25
2023-01-13T10:14:55.965Z,95689.45
2023-01-13T10:17:39.663Z,95687.79
2023-01-13T10:20:24.737Z,95682.91
2023-01-13T10:23:24.890Z,95689.45
2023-01-13T10:26:18.068Z,95689.80
2023-01-13T10:28:54.779Z,95675.98
2023-01-13T10:31:25.579Z,95676.85
2023-01-13T10:34:05.720Z,95675.64
2023-01-13T10:36:37.546Z,95671.33
2023-01-13T10:39:17.315Z,95674.32
2023-01-13T10:41:46.697Z,95674.88
2023-01-13T10:44:22.401Z,95668.80
2023-01-13T10:46:56.766Z,95670.67
2023-01-13T10:49:32.949Z,95630.26
2023-01-13T10:52:03.273Z,95657.63
2023-01-13T10:54:38.639Z,95662.59
2023-01-13T10:57:24.829Z,95659.39
2023-01-13T10:59:55.513Z,95656.86
2023-01-13T11:02:43.063Z,95654.89
2023-01-13T11:05:17.638Z,95658.66
2023-01-13T11:07:52.702Z,95657.19
2023-01-13T11:10:34.522Z,95653.56
2023-01-13T11:13:38.607Z,95655.63
2023-01-13T11:16:15.773Z,95643.27
2023-01-13T11:19:04.657Z,95643.48
2023-01-13T11:21:56.831Z,95639.09
2023-01-13T11:24:55.882Z,95638.20
2023-01-13T11:27:58.494Z,95644.58
2023-01-13T11:30:49.947Z,95644.80
2023-01-13T11:33:45.840Z,95637.66
2023-01-13T11:36:20.951Z,95638.17
2023-01-13T11:39:01.640Z,95633.08
2023-01-13T11:41:48.134Z,95630.91
2023-01-13T11:45:01.670Z,95610.80
2023-01-13T11:50:54.530Z,95622.27
2023-01-13T11:53:37.969Z,95624.27
2023-01-13T11:56:54.583Z,95625.47
2023-01-13T12:16:03.093Z,95609.48
2023-01-13T12:19:08.115Z,95607.72
2023-01-13T12:55:40.520Z,95617.38
2023-01-13T13:01:45.731Z,95614.09
2023-01-13T13:37:39.173Z,95626.87
2023-01-13T13:40:28.331Z,95631.19
2023-01-13T14:19:09.824Z,95632.56
2023-01-13T14:21:39.325Z,95560.80
2023-01-13T14:24:19.770Z,95641.17
2023-01-13T14:33:39.591Z,95639.03
2023-01-13T14:36:27.814Z,95639.03
2023-01-13T14:39:11.664Z,95640.47
2023-01-13T14:41:47.186Z,95642.13
2023-01-13T14:44:30.996Z,95617.28
2023-01-13T14:47:05.540Z,95639.83
2023-01-13T14:50:04.640Z,95641.64
2023-01-13T14:52:36.707Z,95639.77
2023-01-13T14:55:13.912Z,95645.78
2023-01-13T14:57:47.755Z,95649.66
2023-01-13T15:00:19.449Z,95647.97
2023-01-13T15:03:03.159Z,95646.92
2023-01-13T15:05:37.125Z,95646.76
2023-01-13T15:08:09.947Z,95651.17
2023-01-13T15:10:51.112Z,95643.53
2023-01-13T15:13:34.775Z,95648.83
2023-01-13T15:16:10.983Z,95653.75
2023-01-13T15:28:40.326Z,95648.09
2023-01-13T15:31:13.789Z,95653.70
2023-01-13T15:53:48.082Z,95619.63
2023-01-13T15:56:46.709Z,95669.00
2023-01-13T15:59:24.578Z,95667.38
2023-01-13T16:02:03.657Z,95667.48
2023-01-13T16:31:21.244Z,95666.00
2023-01-13T16:50:24.535Z,95664.48
2023-01-13T16:56:01.302Z,95661.64
2023-01-13T17:19:15.792Z,95665.58
2023-01-13T17:41:16.563Z,95665.95
2023-01-13T17:43:45.226Z,95672.56
2023-01-13T17:46:16.653Z,95668.26
2023-01-13T17:48:45.656Z,95669.19
2023-01-13T17:51:21.146Z,95665.58
2023-01-13T17:53:49.714Z,95666.09
2023-01-13T17:56:18.990Z,95666.55
2023-01-13T17:58:47.711Z,95664.80
2023-01-13T18:01:29.113Z,95662.97
2023-01-13T18:04:01.590Z,95665.50
2023-01-13T18:06:30.760Z,95663.70
2023-01-13T18:09:05.310Z,95671.80
2023-01-13T18:11:34.013Z,95670.55
2023-01-13T18:14:02.649Z,95672.42
2023-01-13T18:16:33.800Z,95675.73
2023-01-13T18:19:20.535Z,95667.56
2023-01-13T18:22:08.245Z,95666.69
2023-01-13T18:24:54.686Z,95671.31
2023-01-13T18:27:27.235Z,95676.16
2023-01-13T18:29:58.664Z,95677.66
2023-01-13T18:32:32.789Z,95676.16
2023-01-13T18:35:35.975Z,95675.73
2023-01-13T18:40:54.984Z,95667.36
2023-01-13T18:43:28.013Z,95672.75
2023-01-13T18:45:56.905Z,95671.20
2023-01-13T18:48:25.998Z,95678.91
2023-01-13T18:51:00.298Z,95675.45
2023-01-13T18:53:37.104Z,95671.37
2023-01-13T18:56:27.054Z,95672.00
2023-01-13T18:59:02.281Z,95669.38
2023-01-13T19:01:47.731Z,95667.17
2023-01-13T19:04:20.836Z,95668.36
2023-01-13T19:06:53.166Z,95662.38
2023-01-13T19:15:50.105Z,95656.62
2023-01-13T19:18:20.778Z,95655.40
2023-01-13T19:20:52.297Z,95657.02
2023-01-13T19:23:21.314Z,95660.06
2023-01-13T19:25:49.798Z,95660.62
2023-01-13T19:28:18.555Z,95659.98
2023-01-13T19:30:48.930Z,95656.76
2023-01-13T19:39:39.932Z,95655.30
2023-01-13T19:45:18.520Z,95648.27
2023-01-13T19:47:50.910Z,95646.47
2023-01-13T19:50:19.865Z,95627.13
2023-01-13T19:52:48.556Z,95655.50
2023-01-13T20:14:37.132Z,95647.39
2023-01-13T20:17:35.447Z,95648.61
2023-01-13T20:20:11.206Z,95648.17
2023-01-13T20:26:03.049Z,95646.22
2023-01-13T21:12:20.155Z,95634.69
2023-01-13T21:24:23.309Z,95639.14
2023-01-13T21:26:55.941Z,95635.57
2023-01-13T21:29:30.916Z,95634.30
2023-01-13T21:32:15.961Z,95638.27
2023-01-13T21:34:45.059Z,95645.58
2023-01-13T21:37:15.714Z,95641.13
2023-01-13T21:39:45.047Z,95646.20
2023-01-13T21:42:58.086Z,95653.02
2023-01-13T21:48:44.179Z,95659.24
2023-01-13T21:51:16.301Z,95655.44
2023-01-13T21:53:45.393Z,95652.94
2023-01-13T21:56:17.092Z,95622.14
2023-01-13T21:58:48.999Z,95656.33
2023-01-13T22:01:24.422Z,95655.50
2023-01-13T22:04:13.079Z,95633.59
2023-01-13T22:06:42.276Z,95647.21
2023-01-13T22:09:11.220Z,95649.63
2023-01-13T22:11:51.678Z,95647.86
2023-01-13T22:14:44.998Z,95637.69
2023-01-13T22:17:17.825Z,95639.75
2023-01-13T22:20:00.100Z,95636.37
2023-01-13T22:22:54.973Z,95637.97
2023-01-13T22:25:30.158Z,95643.35
2023-01-13T22:28:02.126Z,95634.70
2023-01-13T22:30:35.064Z,95635.54
2023-01-13T22:33:03.984Z,95631.73
2023-01-13T22:35:32.992Z,95626.05
2023-01-13T22:38:09.633Z,95626.97
2023-01-13T22:40:41.211Z,95627.39
2023-01-13T22:43:10.084Z,95623.04
2023-01-13T22:45:39.136Z,95627.27
2023-01-13T22:48:08.335Z,95635.66
2023-01-13T22:50:37.340Z,95634.09
2023-01-13T22:53:06.477Z,95627.73
2023-01-13T22:55:48.588Z,95627.91
2023-01-13T22:58:25.008Z,95626.27
2023-01-13T23:01:39.012Z,95623.84
2023-01-13T23:07:03.889Z,95622.98
2023-01-13T23:09:36.828Z,95625.68
2023-01-13T23:12:06.152Z,95627.70
2023-01-13T23:14:35.113Z,95623.81
2023-01-13T23:17:04.609Z,95620.14
2023-01-13T23:25:40.892Z,95616.31
2023-01-13T23:28:11.011Z,95622.46
2023-01-13T23:30:41.383Z,95619.30
2023-01-13T23:33:14.402Z,95622.16
2023-01-13T23:35:43.120Z,95618.48
2023-01-13T23:38:11.732Z,95615.47
2023-01-13T23:40:40.468Z,95617.63
2023-01-13T23:43:09.207Z,95614.11
2023-01-13T23:45:37.967Z,95618.19
2023-01-13T23:48:07.421Z,95614.40
2023-01-13T23:50:36.229Z,95613.75
2023-01-13T23:53:05.045Z,95616.78
2023-01-13T23:55:34.927Z,95618.05
2023-01-13T23:58:06.467Z,95614.34
